sensor_id;sensor_type;location;lat;lon;timestamp;P1;durP1;ratioP1;P2;durP2;ratioP2
64842;SDS011;51310;52.198;5.422;2024-03-08T00:00:23;37.25;;;15.98;;
64842;SDS011;51310;52.198;5.422;2024-03-08T00:02:49;40.10;;;17.52;;
64842;SDS011;51310;52.198;5.422;2024-03-08T00:05:19;39.03;;;18.50;;
64842;SDS011;51310;52.198;5.422;2024-03-08T00:07:45;42.55;;;15.55;;
64842;SDS011;51310;52.198;5.422;2024-03-08T00:10:12;40.55;;;16.63;;
64842;SDS011;51310;52.198;5.422;2024-03-08T00:15:11;42.17;;;18.58;;
64842;SDS011;51310;52.198;5.422;2024-03-08T00:17:40;37.90;;;17.00;;
64842;SDS011;51310;52.198;5.422;2024-03-08T00:20:07;49.75;;;20.58;;
64842;SDS011;51310;52.198;5.422;2024-03-08T00:22:37;44.30;;;19.27;;
64842;SDS011;51310;52.198;5.422;2024-03-08T00:25:04;36.88;;;16.35;;
64842;SDS011;51310;52.198;5.422;2024-03-08T00:27:33;38.03;;;16.20;;
64842;SDS011;51310;52.198;5.422;2024-03-08T00:29:59;36.20;;;16.85;;
64842;SDS011;51310;52.198;5.422;2024-03-08T00:32:26;41.80;;;17.98;;
64842;SDS011;51310;52.198;5.422;2024-03-08T00:34:56;39.00;;;17.35;;
64842;SDS011;51310;52.198;5.422;2024-03-08T00:37:23;39.17;;;16.75;;
64842;SDS011;51310;52.198;5.422;2024-03-08T00:39:50;38.90;;;18.13;;
64842;SDS011;51310;52.198;5.422;2024-03-08T00:42:17;47.38;;;19.70;;
64842;SDS011;51310;52.198;5.422;2024-03-08T00:44:44;36.17;;;16.80;;
64842;SDS011;51310;52.198;5.422;2024-03-08T00:47:11;38.17;;;17.10;;
64842;SDS011;51310;52.198;5.422;2024-03-08T00:49:37;36.80;;;17.13;;
64842;SDS011;51310;52.198;5.422;2024-03-08T00:52:06;41.22;;;17.85;;
64842;SDS011;51310;52.198;5.422;2024-03-08T00:54:32;36.08;;;17.55;;
64842;SDS011;51310;52.198;5.422;2024-03-08T00:57:01;34.78;;;16.55;;
64842;SDS011;51310;52.198;5.422;2024-03-08T00:59:28;43.25;;;17.27;;
64842;SDS011;51310;52.198;5.422;2024-03-08T01:02:00;35.60;;;16.10;;
64842;SDS011;51310;52.198;5.422;2024-03-08T01:04:27;32.78;;;17.85;;
64842;SDS011;51310;52.198;5.422;2024-03-08T01:06:57;41.92;;;18.77;;
64842;SDS011;51310;52.198;5.422;2024-03-08T01:09:24;44.55;;;18.85;;
64842;SDS011;51310;52.198;5.422;2024-03-08T01:11:51;45.17;;;18.23;;
64842;SDS011;51310;52.198;5.422;2024-03-08T01:14:21;42.78;;;18.38;;
64842;SDS011;51310;52.198;5.422;2024-03-08T01:16:49;42.78;;;18.58;;
64842;SDS011;51310;52.198;5.422;2024-03-08T01:19:15;42.05;;;17.92;;
64842;SDS011;51310;52.198;5.422;2024-03-08T01:21:41;38.58;;;17.73;;
64842;SDS011;51310;52.198;5.422;2024-03-08T01:24:07;41.08;;;19.35;;
64842;SDS011;51310;52.198;5.422;2024-03-08T01:26:33;44.80;;;19.92;;
64842;SDS011;51310;52.198;5.422;2024-03-08T01:28:59;42.20;;;17.70;;
64842;SDS011;51310;52.198;5.422;2024-03-08T01:31:28;43.85;;;18.48;;
64842;SDS011;51310;52.198;5.422;2024-03-08T01:33:55;35.63;;;18.02;;
64842;SDS011;51310;52.198;5.422;2024-03-08T01:36:22;47.50;;;19.65;;
64842;SDS011;51310;52.198;5.422;2024-03-08T01:38:49;43.05;;;18.80;;
64842;SDS011;51310;52.198;5.422;2024-03-08T01:41:16;38.00;;;16.83;;
64842;SDS011;51310;52.198;5.422;2024-03-08T01:43:43;36.95;;;18.75;;
64842;SDS011;51310;52.198;5.422;2024-03-08T01:46:11;45.65;;;19.13;;
64842;SDS011;51310;52.198;5.422;2024-03-08T01:48:44;40.13;;;18.75;;
64842;SDS011;51310;52.198;5.422;2024-03-08T01:51:10;39.35;;;17.90;;
64842;SDS011;51310;52.198;5.422;2024-03-08T01:53:39;41.30;;;17.85;;
64842;SDS011;51310;52.198;5.422;2024-03-08T01:56:10;42.83;;;18.33;;
64842;SDS011;51310;52.198;5.422;2024-03-08T01:58:38;43.58;;;18.90;;
64842;SDS011;51310;52.198;5.422;2024-03-08T02:01:12;47.00;;;20.40;;
64842;SDS011;51310;52.198;5.422;2024-03-08T02:03:41;41.20;;;17.88;;
64842;SDS011;51310;52.198;5.422;2024-03-08T02:06:11;36.97;;;17.73;;
64842;SDS011;51310;52.198;5.422;2024-03-08T02:08:39;45.22;;;18.83;;
64842;SDS011;51310;52.198;5.422;2024-03-08T02:11:07;43.47;;;19.17;;
64842;SDS011;51310;52.198;5.422;2024-03-08T02:13:33;37.40;;;18.58;;
64842;SDS011;51310;52.198;5.422;2024-03-08T02:15:59;39.53;;;17.95;;
64842;SDS011;51310;52.198;5.422;2024-03-08T02:18:26;49.40;;;17.50;;
64842;SDS011;51310;52.198;5.422;2024-03-08T02:20:58;39.10;;;17.23;;
64842;SDS011;51310;52.198;5.422;2024-03-08T02:23:25;35.03;;;16.70;;
64842;SDS011;51310;52.198;5.422;2024-03-08T02:25:52;41.25;;;17.88;;
64842;SDS011;51310;52.198;5.422;2024-03-08T02:28:21;40.28;;;18.48;;
64842;SDS011;51310;52.198;5.422;2024-03-08T02:30:48;35.35;;;16.67;;
64842;SDS011;51310;52.198;5.422;2024-03-08T02:33:21;44.20;;;20.23;;
64842;SDS011;51310;52.198;5.422;2024-03-08T02:35:48;43.67;;;19.77;;
64842;SDS011;51310;52.198;5.422;2024-03-08T02:38:19;39.78;;;17.60;;
64842;SDS011;51310;52.198;5.422;2024-03-08T02:40:50;41.30;;;17.25;;
64842;SDS011;51310;52.198;5.422;2024-03-08T02:43:18;37.22;;;19.00;;
64842;SDS011;51310;52.198;5.422;2024-03-08T02:45:49;37.28;;;18.35;;
64842;SDS011;51310;52.198;5.422;2024-03-08T02:48:18;45.75;;;18.75;;
64842;SDS011;51310;52.198;5.422;2024-03-08T02:50:46;48.88;;;20.23;;
64842;SDS011;51310;52.198;5.422;2024-03-08T02:53:13;35.45;;;17.45;;
64842;SDS011;51310;52.198;5.422;2024-03-08T02:55:40;38.45;;;19.20;;
64842;SDS011;51310;52.198;5.422;2024-03-08T02:58:06;43.70;;;18.73;;
64842;SDS011;51310;52.198;5.422;2024-03-08T03:00:36;47.17;;;19.02;;
64842;SDS011;51310;52.198;5.422;2024-03-08T03:03:04;39.97;;;19.63;;
64842;SDS011;51310;52.198;5.422;2024-03-08T03:05:31;47.55;;;18.65;;
64842;SDS011;51310;52.198;5.422;2024-03-08T03:07:57;38.80;;;17.35;;
64842;SDS011;51310;52.198;5.422;2024-03-08T03:10:26;46.47;;;18.30;;
64842;SDS011;51310;52.198;5.422;2024-03-08T03:12:51;38.90;;;17.40;;
64842;SDS011;51310;52.198;5.422;2024-03-08T03:15:18;45.08;;;20.25;;
64842;SDS011;51310;52.198;5.422;2024-03-08T03:17:47;39.10;;;19.48;;
64842;SDS011;51310;52.198;5.422;2024-03-08T03:20:18;47.22;;;22.25;;
64842;SDS011;51310;52.198;5.422;2024-03-08T03:22:57;42.88;;;20.10;;
64842;SDS011;51310;52.198;5.422;2024-03-08T03:25:26;38.28;;;17.67;;
64842;SDS011;51310;52.198;5.422;2024-03-08T03:27:58;40.20;;;14.52;;
64842;SDS011;51310;52.198;5.422;2024-03-08T03:30:24;44.42;;;19.77;;
64842;SDS011;51310;52.198;5.422;2024-03-08T03:32:58;38.28;;;18.02;;
64842;SDS011;51310;52.198;5.422;2024-03-08T03:35:35;40.58;;;19.08;;
64842;SDS011;51310;52.198;5.422;2024-03-08T03:38:01;41.50;;;19.35;;
64842;SDS011;51310;52.198;5.422;2024-03-08T03:40:31;42.83;;;20.25;;
64842;SDS011;51310;52.198;5.422;2024-03-08T03:43:01;41.65;;;19.23;;
64842;SDS011;51310;52.198;5.422;2024-03-08T03:45:28;43.05;;;21.42;;
64842;SDS011;51310;52.198;5.422;2024-03-08T03:47:55;41.83;;;18.95;;
64842;SDS011;51310;52.198;5.422;2024-03-08T03:50:21;44.20;;;19.88;;
64842;SDS011;51310;52.198;5.422;2024-03-08T03:52:48;49.92;;;20.23;;
64842;SDS011;51310;52.198;5.422;2024-03-08T03:55:14;38.47;;;19.98;;
64842;SDS011;51310;52.198;5.422;2024-03-08T03:57:41;39.35;;;18.35;;
64842;SDS011;51310;52.198;5.422;2024-03-08T04:00:08;37.75;;;18.02;;
64842;SDS011;51310;52.198;5.422;2024-03-08T04:02:35;44.35;;;18.92;;
64842;SDS011;51310;52.198;5.422;2024-03-08T04:05:05;42.90;;;19.08;;
64842;SDS011;51310;52.198;5.422;2024-03-08T04:07:32;43.22;;;18.30;;
64842;SDS011;51310;52.198;5.422;2024-03-08T04:09:59;34.67;;;17.75;;
64842;SDS011;51310;52.198;5.422;2024-03-08T04:12:27;37.83;;;18.48;;
64842;SDS011;51310;52.198;5.422;2024-03-08T04:14:57;43.70;;;19.17;;
64842;SDS011;51310;52.198;5.422;2024-03-08T04:17:23;35.17;;;19.17;;
64842;SDS011;51310;52.198;5.422;2024-03-08T04:19:52;36.95;;;17.45;;
64842;SDS011;51310;52.198;5.422;2024-03-08T04:22:18;38.45;;;17.20;;
64842;SDS011;51310;52.198;5.422;2024-03-08T04:24:45;34.85;;;18.92;;
64842;SDS011;51310;52.198;5.422;2024-03-08T04:27:11;34.67;;;17.52;;
64842;SDS011;51310;52.198;5.422;2024-03-08T04:29:39;41.42;;;20.23;;
64842;SDS011;51310;52.198;5.422;2024-03-08T04:32:05;41.53;;;19.52;;
64842;SDS011;51310;52.198;5.422;2024-03-08T04:34:33;36.50;;;17.95;;
64842;SDS011;51310;52.198;5.422;2024-03-08T04:37:00;37.55;;;20.10;;
64842;SDS011;51310;52.198;5.422;2024-03-08T04:39:31;40.70;;;19.25;;
64842;SDS011;51310;52.198;5.422;2024-03-08T04:41:59;35.80;;;18.58;;
64842;SDS011;51310;52.198;5.422;2024-03-08T04:44:29;41.90;;;18.77;;
64842;SDS011;51310;52.198;5.422;2024-03-08T04:46:56;42.58;;;17.58;;
64842;SDS011;51310;52.198;5.422;2024-03-08T04:49:22;43.25;;;18.55;;
64842;SDS011;51310;52.198;5.422;2024-03-08T04:51:48;36.58;;;18.65;;
64842;SDS011;51310;52.198;5.422;2024-03-08T04:54:14;37.55;;;18.30;;
64842;SDS011;51310;52.198;5.422;2024-03-08T04:56:40;35.80;;;17.38;;
64842;SDS011;51310;52.198;5.422;2024-03-08T04:59:06;31.05;;;17.17;;
64842;SDS011;51310;52.198;5.422;2024-03-08T05:01:33;40.15;;;18.35;;
64842;SDS011;51310;52.198;5.422;2024-03-08T05:04:02;35.72;;;17.98;;
64842;SDS011;51310;52.198;5.422;2024-03-08T05:06:29;37.67;;;18.50;;
64842;SDS011;51310;52.198;5.422;2024-03-08T05:08:55;38.03;;;18.67;;
64842;SDS011;51310;52.198;5.422;2024-03-08T05:11:21;41.50;;;18.85;;
64842;SDS011;51310;52.198;5.422;2024-03-08T05:13:47;35.15;;;17.83;;
64842;SDS011;51310;52.198;5.422;2024-03-08T05:16:13;36.63;;;18.15;;
64842;SDS011;51310;52.198;5.422;2024-03-08T05:18:40;42.45;;;18.52;;
64842;SDS011;51310;52.198;5.422;2024-03-08T05:21:07;39.95;;;20.25;;
64842;SDS011;51310;52.198;5.422;2024-03-08T05:23:34;33.72;;;16.17;;
64842;SDS011;51310;52.198;5.422;2024-03-08T05:26:00;36.92;;;19.05;;
64842;SDS011;51310;52.198;5.422;2024-03-08T05:28:26;39.35;;;18.70;;
64842;SDS011;51310;52.198;5.422;2024-03-08T05:30:52;39.78;;;20.20;;
64842;SDS011;51310;52.198;5.422;2024-03-08T05:33:18;43.85;;;18.65;;
64842;SDS011;51310;52.198;5.422;2024-03-08T05:35:44;39.38;;;20.45;;
64842;SDS011;51310;52.198;5.422;2024-03-08T05:38:10;44.92;;;19.13;;
64842;SDS011;51310;52.198;5.422;2024-03-08T05:40:38;39.72;;;20.15;;
64842;SDS011;51310;52.198;5.422;2024-03-08T05:43:03;44.00;;;21.08;;
64842;SDS011;51310;52.198;5.422;2024-03-08T05:45:30;35.20;;;17.20;;
64842;SDS011;51310;52.198;5.422;2024-03-08T05:47:56;35.90;;;19.20;;
64842;SDS011;51310;52.198;5.422;2024-03-08T05:50:22;42.05;;;17.60;;
64842;SDS011;51310;52.198;5.422;2024-03-08T05:52:48;40.92;;;20.10;;
64842;SDS011;51310;52.198;5.422;2024-03-08T05:55:14;40.22;;;20.05;;
64842;SDS011;51310;52.198;5.422;2024-03-08T05:57:41;50.42;;;19.80;;
64842;SDS011;51310;52.198;5.422;2024-03-08T06:00:07;38.80;;;20.27;;
64842;SDS011;51310;52.198;5.422;2024-03-08T06:02:40;32.97;;;18.63;;
64842;SDS011;51310;52.198;5.422;2024-03-08T06:05:09;36.83;;;17.73;;
64842;SDS011;51310;52.198;5.422;2024-03-08T06:07:36;35.15;;;18.83;;
64842;SDS011;51310;52.198;5.422;2024-03-08T06:10:07;33.50;;;18.23;;
64842;SDS011;51310;52.198;5.422;2024-03-08T06:12:39;42.28;;;19.58;;
64842;SDS011;51310;52.198;5.422;2024-03-08T06:15:09;41.60;;;19.77;;
64842;SDS011;51310;52.198;5.422;2024-03-08T06:17:39;39.80;;;18.85;;
64842;SDS011;51310;52.198;5.422;2024-03-08T06:20:06;38.78;;;18.40;;
64842;SDS011;51310;52.198;5.422;2024-03-08T06:22:41;37.20;;;19.23;;
64842;SDS011;51310;52.198;5.422;2024-03-08T06:25:07;46.58;;;19.05;;
64842;SDS011;51310;52.198;5.422;2024-03-08T06:27:36;44.15;;;21.45;;
64842;SDS011;51310;52.198;5.422;2024-03-08T06:30:02;43.72;;;18.75;;
64842;SDS011;51310;52.198;5.422;2024-03-08T06:32:29;44.05;;;19.90;;
64842;SDS011;51310;52.198;5.422;2024-03-08T06:35:00;38.42;;;19.05;;
64842;SDS011;51310;52.198;5.422;2024-03-08T06:37:31;35.47;;;17.65;;
64842;SDS011;51310;52.198;5.422;2024-03-08T06:40:00;40.78;;;19.55;;
64842;SDS011;51310;52.198;5.422;2024-03-08T06:42:28;38.00;;;18.98;;
64842;SDS011;51310;52.198;5.422;2024-03-08T06:44:54;41.60;;;19.42;;
64842;SDS011;51310;52.198;5.422;2024-03-08T06:47:24;39.85;;;19.77;;
64842;SDS011;51310;52.198;5.422;2024-03-08T06:49:50;56.22;;;23.95;;
64842;SDS011;51310;52.198;5.422;2024-03-08T06:52:17;36.20;;;19.35;;
64842;SDS011;51310;52.198;5.422;2024-03-08T06:54:43;46.10;;;19.98;;
64842;SDS011;51310;52.198;5.422;2024-03-08T06:57:09;34.63;;;18.42;;
64842;SDS011;51310;52.198;5.422;2024-03-08T06:59:35;43.90;;;21.00;;
64842;SDS011;51310;52.198;5.422;2024-03-08T07:02:02;45.53;;;19.33;;
64842;SDS011;51310;52.198;5.422;2024-03-08T07:04:29;45.67;;;21.70;;
64842;SDS011;51310;52.198;5.422;2024-03-08T07:06:57;42.30;;;19.02;;
64842;SDS011;51310;52.198;5.422;2024-03-08T07:09:24;41.25;;;21.17;;
64842;SDS011;51310;52.198;5.422;2024-03-08T07:11:50;43.22;;;18.98;;
64842;SDS011;51310;52.198;5.422;2024-03-08T07:14:22;41.13;;;20.38;;
64842;SDS011;51310;52.198;5.422;2024-03-08T07:16:49;42.05;;;19.40;;
64842;SDS011;51310;52.198;5.422;2024-03-08T07:19:16;42.53;;;19.23;;
64842;SDS011;51310;52.198;5.422;2024-03-08T07:21:43;43.10;;;21.52;;
64842;SDS011;51310;52.198;5.422;2024-03-08T07:24:09;42.83;;;20.70;;
64842;SDS011;51310;52.198;5.422;2024-03-08T07:29:08;36.92;;;18.25;;
64842;SDS011;51310;52.198;5.422;2024-03-08T07:31:34;40.65;;;20.10;;
64842;SDS011;51310;52.198;5.422;2024-03-08T07:34:23;40.03;;;18.92;;
64842;SDS011;51310;52.198;5.422;2024-03-08T07:36:49;45.45;;;20.95;;
64842;SDS011;51310;52.198;5.422;2024-03-08T07:39:15;41.35;;;17.63;;
64842;SDS011;51310;52.198;5.422;2024-03-08T07:41:42;40.38;;;20.40;;
64842;SDS011;51310;52.198;5.422;2024-03-08T07:44:08;38.78;;;18.73;;
64842;SDS011;51310;52.198;5.422;2024-03-08T07:46:34;42.22;;;22.10;;
64842;SDS011;51310;52.198;5.422;2024-03-08T07:49:00;34.55;;;19.67;;
64842;SDS011;51310;52.198;5.422;2024-03-08T07:51:26;36.63;;;18.27;;
64842;SDS011;51310;52.198;5.422;2024-03-08T07:53:52;43.33;;;19.50;;
64842;SDS011;51310;52.198;5.422;2024-03-08T07:56:17;40.50;;;19.85;;
64842;SDS011;51310;52.198;5.422;2024-03-08T07:58:44;39.80;;;19.80;;
64842;SDS011;51310;52.198;5.422;2024-03-08T08:01:19;40.03;;;19.50;;
64842;SDS011;51310;52.198;5.422;2024-03-08T08:03:46;45.03;;;21.17;;
64842;SDS011;51310;52.198;5.422;2024-03-08T08:06:14;32.00;;;17.65;;
64842;SDS011;51310;52.198;5.422;2024-03-08T08:08:41;37.63;;;19.38;;
64842;SDS011;51310;52.198;5.422;2024-03-08T08:11:08;39.63;;;20.17;;
64842;SDS011;51310;52.198;5.422;2024-03-08T08:13:34;33.60;;;17.80;;
64842;SDS011;51310;52.198;5.422;2024-03-08T08:16:01;36.75;;;20.00;;
64842;SDS011;51310;52.198;5.422;2024-03-08T08:18:28;36.95;;;19.85;;
64842;SDS011;51310;52.198;5.422;2024-03-08T08:20:55;38.03;;;20.73;;
64842;SDS011;51310;52.198;5.422;2024-03-08T08:23:21;40.53;;;19.75;;
64842;SDS011;51310;52.198;5.422;2024-03-08T08:25:47;40.83;;;20.33;;
64842;SDS011;51310;52.198;5.422;2024-03-08T08:28:15;40.13;;;17.67;;
64842;SDS011;51310;52.198;5.422;2024-03-08T08:30:44;31.83;;;17.23;;
64842;SDS011;51310;52.198;5.422;2024-03-08T08:33:10;38.00;;;18.38;;
64842;SDS011;51310;52.198;5.422;2024-03-08T08:35:36;33.28;;;17.42;;
64842;SDS011;51310;52.198;5.422;2024-03-08T08:38:03;33.80;;;18.60;;
64842;SDS011;51310;52.198;5.422;2024-03-08T08:40:35;36.35;;;19.58;;
64842;SDS011;51310;52.198;5.422;2024-03-08T08:43:02;34.45;;;19.75;;
64842;SDS011;51310;52.198;5.422;2024-03-08T08:45:32;34.33;;;18.88;;
64842;SDS011;51310;52.198;5.422;2024-03-08T08:47:58;38.25;;;18.42;;
64842;SDS011;51310;52.198;5.422;2024-03-08T08:50:25;30.05;;;17.02;;
64842;SDS011;51310;52.198;5.422;2024-03-08T08:52:54;39.92;;;19.20;;
64842;SDS011;51310;52.198;5.422;2024-03-08T08:55:20;37.65;;;19.50;;
64842;SDS011;51310;52.198;5.422;2024-03-08T08:57:50;37.28;;;21.10;;
64842;SDS011;51310;52.198;5.422;2024-03-08T09:00:18;37.40;;;17.58;;
64842;SDS011;51310;52.198;5.422;2024-03-08T09:02:51;35.45;;;18.15;;
64842;SDS011;51310;52.198;5.422;2024-03-08T09:05:20;36.35;;;19.20;;
64842;SDS011;51310;52.198;5.422;2024-03-08T09:07:46;35.95;;;16.60;;
64842;SDS011;51310;52.198;5.422;2024-03-08T09:10:12;42.70;;;16.80;;
64842;SDS011;51310;52.198;5.422;2024-03-08T09:12:39;30.23;;;17.40;;
64842;SDS011;51310;52.198;5.422;2024-03-08T09:15:05;33.60;;;18.48;;
64842;SDS011;51310;52.198;5.422;2024-03-08T09:17:38;33.20;;;17.15;;
64842;SDS011;51310;52.198;5.422;2024-03-08T09:20:06;42.45;;;19.85;;
64842;SDS011;51310;52.198;5.422;2024-03-08T09:22:39;34.90;;;17.95;;
64842;SDS011;51310;52.198;5.422;2024-03-08T09:25:09;37.72;;;19.15;;
64842;SDS011;51310;52.198;5.422;2024-03-08T09:27:35;37.22;;;16.42;;
64842;SDS011;51310;52.198;5.422;2024-03-08T09:30:01;30.75;;;17.17;;
64842;SDS011;51310;52.198;5.422;2024-03-08T09:32:31;38.85;;;17.77;;
64842;SDS011;51310;52.198;5.422;2024-03-08T09:34:57;31.38;;;16.98;;
64842;SDS011;51310;52.198;5.422;2024-03-08T09:37:23;35.35;;;16.85;;
64842;SDS011;51310;52.198;5.422;2024-03-08T09:39:49;34.78;;;18.70;;
64842;SDS011;51310;52.198;5.422;2024-03-08T09:42:15;29.48;;;17.15;;
64842;SDS011;51310;52.198;5.422;2024-03-08T09:44:45;30.58;;;16.40;;
64842;SDS011;51310;52.198;5.422;2024-03-08T09:47:15;36.45;;;18.27;;
64842;SDS011;51310;52.198;5.422;2024-03-08T09:49:43;32.85;;;16.60;;
64842;SDS011;51310;52.198;5.422;2024-03-08T09:52:09;31.65;;;15.88;;
64842;SDS011;51310;52.198;5.422;2024-03-08T09:54:37;31.85;;;16.35;;
64842;SDS011;51310;52.198;5.422;2024-03-08T09:57:04;41.75;;;17.88;;
64842;SDS011;51310;52.198;5.422;2024-03-08T09:59:34;38.22;;;17.17;;
64842;SDS011;51310;52.198;5.422;2024-03-08T10:02:03;33.33;;;16.63;;
64842;SDS011;51310;52.198;5.422;2024-03-08T10:04:29;33.08;;;17.83;;
64842;SDS011;51310;52.198;5.422;2024-03-08T10:07:01;28.42;;;15.85;;
64842;SDS011;51310;52.198;5.422;2024-03-08T10:09:27;29.65;;;16.55;;
64842;SDS011;51310;52.198;5.422;2024-03-08T10:11:56;35.85;;;18.55;;
64842;SDS011;51310;52.198;5.422;2024-03-08T10:14:23;29.35;;;17.30;;
64842;SDS011;51310;52.198;5.422;2024-03-08T10:16:52;32.05;;;17.08;;
64842;SDS011;51310;52.198;5.422;2024-03-08T10:19:19;32.55;;;16.90;;
64842;SDS011;51310;52.198;5.422;2024-03-08T10:21:51;30.20;;;14.98;;
64842;SDS011;51310;52.198;5.422;2024-03-08T10:24:29;32.45;;;17.08;;
64842;SDS011;51310;52.198;5.422;2024-03-08T10:27:01;26.92;;;15.43;;
64842;SDS011;51310;52.198;5.422;2024-03-08T10:29:30;35.22;;;18.58;;
64842;SDS011;51310;52.198;5.422;2024-03-08T10:31:57;32.97;;;15.73;;
64842;SDS011;51310;52.198;5.422;2024-03-08T10:34:26;33.47;;;16.38;;
64842;SDS011;51310;52.198;5.422;2024-03-08T10:36:52;29.77;;;16.23;;
64842;SDS011;51310;52.198;5.422;2024-03-08T10:39:22;30.98;;;16.98;;
64842;SDS011;51310;52.198;5.422;2024-03-08T10:41:55;30.70;;;16.30;;
64842;SDS011;51310;52.198;5.422;2024-03-08T10:47:01;28.10;;;15.40;;
64842;SDS011;51310;52.198;5.422;2024-03-08T10:50:11;35.70;;;17.60;;
64842;SDS011;51310;52.198;5.422;2024-03-08T10:52:50;32.72;;;15.63;;
64842;SDS011;51310;52.198;5.422;2024-03-08T10:55:17;26.92;;;14.48;;
64842;SDS011;51310;52.198;5.422;2024-03-08T10:57:47;33.58;;;16.17;;
64842;SDS011;51310;52.198;5.422;2024-03-08T11:00:13;27.70;;;15.90;;
64842;SDS011;51310;52.198;5.422;2024-03-08T11:02:44;29.08;;;14.38;;
64842;SDS011;51310;52.198;5.422;2024-03-08T11:05:10;26.77;;;14.02;;
64842;SDS011;51310;52.198;5.422;2024-03-08T11:08:03;28.30;;;16.58;;
64842;SDS011;51310;52.198;5.422;2024-03-08T11:10:50;28.45;;;16.98;;
64842;SDS011;51310;52.198;5.422;2024-03-08T11:16:48;27.33;;;14.63;;
64842;SDS011;51310;52.198;5.422;2024-03-08T11:21:37;29.45;;;13.90;;
64842;SDS011;51310;52.198;5.422;2024-03-08T11:24:07;29.13;;;14.15;;
64842;SDS011;51310;52.198;5.422;2024-03-08T11:26:39;32.67;;;14.50;;
64842;SDS011;51310;52.198;5.422;2024-03-08T11:34:44;28.90;;;15.25;;
64842;SDS011;51310;52.198;5.422;2024-03-08T11:37:17;29.88;;;14.43;;
64842;SDS011;51310;52.198;5.422;2024-03-08T11:39:53;25.60;;;14.02;;
64842;SDS011;51310;52.198;5.422;2024-03-08T11:42:24;23.02;;;14.02;;
64842;SDS011;51310;52.198;5.422;2024-03-08T11:44:53;26.45;;;15.13;;
64842;SDS011;51310;52.198;5.422;2024-03-08T11:47:19;27.52;;;15.18;;
64842;SDS011;51310;52.198;5.422;2024-03-08T11:49:46;20.98;;;12.10;;
64842;SDS011;51310;52.198;5.422;2024-03-08T11:52:14;22.20;;;13.45;;
64842;SDS011;51310;52.198;5.422;2024-03-08T11:54:42;25.83;;;13.25;;
64842;SDS011;51310;52.198;5.422;2024-03-08T11:57:25;23.65;;;13.02;;
64842;SDS011;51310;52.198;5.422;2024-03-08T11:59:54;22.90;;;13.25;;
64842;SDS011;51310;52.198;5.422;2024-03-08T12:02:34;23.60;;;13.05;;
64842;SDS011;51310;52.198;5.422;2024-03-08T12:05:05;23.40;;;11.90;;
64842;SDS011;51310;52.198;5.422;2024-03-08T12:07:34;24.23;;;12.80;;
64842;SDS011;51310;52.198;5.422;2024-03-08T12:12:47;21.77;;;12.13;;
64842;SDS011;51310;52.198;5.422;2024-03-08T12:15:20;25.00;;;13.10;;
64842;SDS011;51310;52.198;5.422;2024-03-08T12:17:49;23.10;;;13.75;;
64842;SDS011;51310;52.198;5.422;2024-03-08T12:20:23;25.65;;;14.00;;
64842;SDS011;51310;52.198;5.422;2024-03-08T12:22:56;27.08;;;13.60;;
64842;SDS011;51310;52.198;5.422;2024-03-08T12:25:27;22.08;;;12.30;;
64842;SDS011;51310;52.198;5.422;2024-03-08T12:28:09;24.40;;;12.30;;
64842;SDS011;51310;52.198;5.422;2024-03-08T12:30:49;21.85;;;11.57;;
64842;SDS011;51310;52.198;5.422;2024-03-08T12:33:19;25.30;;;13.23;;
64842;SDS011;51310;52.198;5.422;2024-03-08T12:35:52;24.27;;;13.20;;
64842;SDS011;51310;52.198;5.422;2024-03-08T12:38:23;23.70;;;13.52;;
64842;SDS011;51310;52.198;5.422;2024-03-08T12:40:57;19.70;;;11.43;;
64842;SDS011;51310;52.198;5.422;2024-03-08T12:43:25;19.60;;;11.02;;
64842;SDS011;51310;52.198;5.422;2024-03-08T12:45:51;21.17;;;11.82;;
64842;SDS011;51310;52.198;5.422;2024-03-08T12:48:17;19.98;;;12.05;;
64842;SDS011;51310;52.198;5.422;2024-03-08T12:50:45;23.85;;;12.75;;
64842;SDS011;51310;52.198;5.422;2024-03-08T12:53:13;23.48;;;12.40;;
64842;SDS011;51310;52.198;5.422;2024-03-08T12:55:39;28.77;;;11.65;;
64842;SDS011;51310;52.198;5.422;2024-03-08T12:58:05;22.30;;;12.18;;
64842;SDS011;51310;52.198;5.422;2024-03-08T13:00:34;22.50;;;12.52;;
64842;SDS011;51310;52.198;5.422;2024-03-08T13:03:01;27.85;;;14.48;;
64842;SDS011;51310;52.198;5.422;2024-03-08T13:05:28;26.13;;;13.10;;
64842;SDS011;51310;52.198;5.422;2024-03-08T13:07:55;23.75;;;13.00;;
64842;SDS011;51310;52.198;5.422;2024-03-08T13:10:21;23.70;;;12.20;;
64842;SDS011;51310;52.198;5.422;2024-03-08T13:12:48;23.23;;;12.65;;
64842;SDS011;51310;52.198;5.422;2024-03-08T13:15:14;26.67;;;13.30;;
64842;SDS011;51310;52.198;5.422;2024-03-08T13:17:46;23.60;;;12.67;;
64842;SDS011;51310;52.198;5.422;2024-03-08T13:20:13;24.48;;;14.20;;
64842;SDS011;51310;52.198;5.422;2024-03-08T13:22:43;22.70;;;14.20;;
64842;SDS011;51310;52.198;5.422;2024-03-08T13:25:12;23.95;;;13.75;;
64842;SDS011;51310;52.198;5.422;2024-03-08T13:27:41;21.38;;;11.75;;
64842;SDS011;51310;52.198;5.422;2024-03-08T13:30:08;25.17;;;12.75;;
64842;SDS011;51310;52.198;5.422;2024-03-08T13:32:39;24.02;;;13.55;;
64842;SDS011;51310;52.198;5.422;2024-03-08T13:35:08;23.98;;;12.60;;
64842;SDS011;51310;52.198;5.422;2024-03-08T13:37:38;25.17;;;12.98;;
64842;SDS011;51310;52.198;5.422;2024-03-08T13:40:10;24.15;;;13.98;;
64842;SDS011;51310;52.198;5.422;2024-03-08T13:42:38;26.40;;;14.60;;
64842;SDS011;51310;52.198;5.422;2024-03-08T13:45:11;23.60;;;12.48;;
64842;SDS011;51310;52.198;5.422;2024-03-08T13:47:40;20.35;;;11.23;;
64842;SDS011;51310;52.198;5.422;2024-03-08T13:50:06;20.00;;;11.77;;
64842;SDS011;51310;52.198;5.422;2024-03-08T13:52:37;24.83;;;13.40;;
64842;SDS011;51310;52.198;5.422;2024-03-08T13:55:05;26.15;;;14.95;;
64842;SDS011;51310;52.198;5.422;2024-03-08T13:57:32;27.25;;;14.15;;
64842;SDS011;51310;52.198;5.422;2024-03-08T13:59:58;19.15;;;12.63;;
64842;SDS011;51310;52.198;5.422;2024-03-08T14:02:24;24.02;;;12.95;;
64842;SDS011;51310;52.198;5.422;2024-03-08T14:04:56;22.75;;;12.63;;
64842;SDS011;51310;52.198;5.422;2024-03-08T14:07:22;24.90;;;12.68;;
64842;SDS011;51310;52.198;5.422;2024-03-08T14:09:51;22.52;;;12.32;;
64842;SDS011;51310;52.198;5.422;2024-03-08T14:12:18;24.70;;;13.52;;
64842;SDS011;51310;52.198;5.422;2024-03-08T14:14:44;22.92;;;12.68;;
64842;SDS011;51310;52.198;5.422;2024-03-08T14:17:10;24.45;;;12.90;;
64842;SDS011;51310;52.198;5.422;2024-03-08T14:22:46;25.25;;;12.65;;
64842;SDS011;51310;52.198;5.422;2024-03-08T14:25:12;21.13;;;12.48;;
64842;SDS011;51310;52.198;5.422;2024-03-08T14:27:43;23.27;;;12.32;;
64842;SDS011;51310;52.198;5.422;2024-03-08T14:30:11;21.23;;;12.10;;
64842;SDS011;51310;52.198;5.422;2024-03-08T14:32:38;24.83;;;13.52;;
64842;SDS011;51310;52.198;5.422;2024-03-08T14:35:06;24.75;;;13.23;;
64842;SDS011;51310;52.198;5.422;2024-03-08T14:37:33;22.65;;;12.75;;
64842;SDS011;51310;52.198;5.422;2024-03-08T14:39:59;22.45;;;12.75;;
64842;SDS011;51310;52.198;5.422;2024-03-08T14:42:25;22.45;;;12.32;;
64842;SDS011;51310;52.198;5.422;2024-03-08T14:44:51;23.45;;;13.00;;
64842;SDS011;51310;52.198;5.422;2024-03-08T14:47:19;23.95;;;11.75;;
64842;SDS011;51310;52.198;5.422;2024-03-08T14:49:45;19.45;;;11.75;;
64842;SDS011;51310;52.198;5.422;2024-03-08T14:52:14;21.77;;;12.18;;